sensor_id;sensor_type;location;lat;lon;timestamp;P1;durP1;ratioP1;P2;durP2;ratioP2
15645;SDS011;7922;43.622;1.476;2022-11-12T00:01:28;12.10;;;5.00;;
15645;SDS011;7922;43.622;1.476;2022-11-12T00:03:53;4.90;;;4.23;;
15645;SDS011;7922;43.622;1.476;2022-11-12T00:06:20;8.00;;;4.50;;
15645;SDS011;7922;43.622;1.476;2022-11-12T00:08:45;7.07;;;5.13;;
15645;SDS011;7922;43.622;1.476;2022-11-12T00:11:10;9.77;;;4.80;;
15645;SDS011;7922;43.622;1.476;2022-11-12T00:13:36;9.80;;;4.97;;
15645;SDS011;7922;43.622;1.476;2022-11-12T00:16:01;7.77;;;4.67;;
15645;SDS011;7922;43.622;1.476;2022-11-12T00:18:29;8.30;;;4.60;;
15645;SDS011;7922;43.622;1.476;2022-11-12T00:20:55;7.93;;;5.00;;
15645;SDS011;7922;43.622;1.476;2022-11-12T00:23:20;10.53;;;5.50;;
15645;SDS011;7922;43.622;1.476;2022-11-12T00:25:46;6.07;;;4.77;;
15645;SDS011;7922;43.622;1.476;2022-11-12T00:28:11;7.90;;;4.90;;
15645;SDS011;7922;43.622;1.476;2022-11-12T00:30:37;8.60;;;5.07;;
15645;SDS011;7922;43.622;1.476;2022-11-12T00:33:03;8.93;;;5.00;;
15645;SDS011;7922;43.622;1.476;2022-11-12T00:35:29;9.77;;;4.90;;
15645;SDS011;7922;43.622;1.476;2022-11-12T00:37:56;11.20;;;5.50;;
15645;SDS011;7922;43.622;1.476;2022-11-12T00:40:21;5.87;;;4.83;;
15645;SDS011;7922;43.622;1.476;2022-11-12T00:42:47;9.13;;;4.97;;
15645;SDS011;7922;43.622;1.476;2022-11-12T00:45:15;8.30;;;4.70;;
15645;SDS011;7922;43.622;1.476;2022-11-12T00:47:40;11.03;;;5.27;;
15645;SDS011;7922;43.622;1.476;2022-11-12T00:50:06;9.87;;;5.30;;
15645;SDS011;7922;43.622;1.476;2022-11-12T00:52:31;9.83;;;5.03;;
15645;SDS011;7922;43.622;1.476;2022-11-12T00:54:57;8.13;;;4.83;;
15645;SDS011;7922;43.622;1.476;2022-11-12T00:57:22;6.07;;;4.93;;
15645;SDS011;7922;43.622;1.476;2022-11-12T00:59:47;7.80;;;5.20;;
15645;SDS011;7922;43.622;1.476;2022-11-12T01:02:13;14.97;;;5.50;;
15645;SDS011;7922;43.622;1.476;2022-11-12T01:04:38;13.07;;;4.90;;
15645;SDS011;7922;43.622;1.476;2022-11-12T01:07:04;8.47;;;4.93;;
15645;SDS011;7922;43.622;1.476;2022-11-12T01:09:29;9.83;;;5.13;;
15645;SDS011;7922;43.622;1.476;2022-11-12T01:11:54;9.13;;;5.27;;
15645;SDS011;7922;43.622;1.476;2022-11-12T01:14:20;10.70;;;5.00;;
15645;SDS011;7922;43.622;1.476;2022-11-12T01:16:45;6.93;;;5.00;;
15645;SDS011;7922;43.622;1.476;2022-11-12T01:19:10;11.10;;;4.80;;
15645;SDS011;7922;43.622;1.476;2022-11-12T01:21:39;8.00;;;5.67;;
15645;SDS011;7922;43.622;1.476;2022-11-12T01:24:06;10.67;;;5.00;;
15645;SDS011;7922;43.622;1.476;2022-11-12T01:26:32;8.93;;;5.03;;
15645;SDS011;7922;43.622;1.476;2022-11-12T01:28:58;8.30;;;4.90;;
15645;SDS011;7922;43.622;1.476;2022-11-12T01:31:24;9.00;;;4.97;;
15645;SDS011;7922;43.622;1.476;2022-11-12T01:33:52;9.33;;;4.90;;
15645;SDS011;7922;43.622;1.476;2022-11-12T01:36:20;10.40;;;4.73;;
15645;SDS011;7922;43.622;1.476;2022-11-12T01:38:46;6.47;;;4.77;;
15645;SDS011;7922;43.622;1.476;2022-11-12T01:41:14;10.57;;;4.93;;
15645;SDS011;7922;43.622;1.476;2022-11-12T01:43:44;10.70;;;5.40;;
15645;SDS011;7922;43.622;1.476;2022-11-12T01:46:12;8.13;;;4.57;;
15645;SDS011;7922;43.622;1.476;2022-11-12T01:48:52;7.47;;;4.57;;
15645;SDS011;7922;43.622;1.476;2022-11-12T01:51:20;6.13;;;4.87;;
15645;SDS011;7922;43.622;1.476;2022-11-12T01:53:48;7.03;;;5.00;;
15645;SDS011;7922;43.622;1.476;2022-11-12T01:56:15;8.73;;;4.70;;
15645;SDS011;7922;43.622;1.476;2022-11-12T01:58:42;7.50;;;4.67;;
15645;SDS011;7922;43.622;1.476;2022-11-12T02:01:08;8.03;;;5.10;;
15645;SDS011;7922;43.622;1.476;2022-11-12T02:03:33;6.90;;;4.83;;
15645;SDS011;7922;43.622;1.476;2022-11-12T02:06:03;6.30;;;4.70;;
15645;SDS011;7922;43.622;1.476;2022-11-12T02:08:32;8.00;;;5.10;;
15645;SDS011;7922;43.622;1.476;2022-11-12T02:11:07;8.93;;;5.00;;
15645;SDS011;7922;43.622;1.476;2022-11-12T02:13:38;7.93;;;4.70;;
15645;SDS011;7922;43.622;1.476;2022-11-12T02:16:23;7.20;;;4.53;;
15645;SDS011;7922;43.622;1.476;2022-11-12T02:18:49;7.73;;;4.60;;
15645;SDS011;7922;43.622;1.476;2022-11-12T02:21:21;10.23;;;5.20;;
15645;SDS011;7922;43.622;1.476;2022-11-12T02:23:55;8.07;;;4.90;;
15645;SDS011;7922;43.622;1.476;2022-11-12T02:26:25;7.63;;;4.10;;
15645;SDS011;7922;43.622;1.476;2022-11-12T02:28:51;10.30;;;4.90;;
15645;SDS011;7922;43.622;1.476;2022-11-12T02:31:17;9.03;;;4.53;;
15645;SDS011;7922;43.622;1.476;2022-11-12T02:33:42;5.33;;;4.50;;
15645;SDS011;7922;43.622;1.476;2022-11-12T02:36:08;7.47;;;4.60;;
15645;SDS011;7922;43.622;1.476;2022-11-12T02:38:33;8.80;;;5.13;;
15645;SDS011;7922;43.622;1.476;2022-11-12T02:40:58;5.70;;;4.57;;
15645;SDS011;7922;43.622;1.476;2022-11-12T02:43:24;11.83;;;5.03;;
15645;SDS011;7922;43.622;1.476;2022-11-12T02:45:49;9.53;;;5.03;;
15645;SDS011;7922;43.622;1.476;2022-11-12T02:48:14;9.07;;;4.73;;
15645;SDS011;7922;43.622;1.476;2022-11-12T02:50:40;7.67;;;4.90;;
15645;SDS011;7922;43.622;1.476;2022-11-12T02:53:05;10.43;;;4.57;;
15645;SDS011;7922;43.622;1.476;2022-11-12T02:55:31;9.00;;;4.40;;
15645;SDS011;7922;43.622;1.476;2022-11-12T02:57:56;7.77;;;5.07;;
15645;SDS011;7922;43.622;1.476;2022-11-12T03:00:22;9.60;;;4.77;;
15645;SDS011;7922;43.622;1.476;2022-11-12T03:02:48;9.07;;;4.80;;
15645;SDS011;7922;43.622;1.476;2022-11-12T03:05:26;7.07;;;4.70;;
15645;SDS011;7922;43.622;1.476;2022-11-12T03:08:03;8.13;;;4.87;;
15645;SDS011;7922;43.622;1.476;2022-11-12T03:10:30;8.40;;;4.23;;
15645;SDS011;7922;43.622;1.476;2022-11-12T03:12:56;7.87;;;4.97;;
15645;SDS011;7922;43.622;1.476;2022-11-12T03:15:23;8.30;;;4.87;;
15645;SDS011;7922;43.622;1.476;2022-11-12T03:17:48;6.50;;;4.50;;
15645;SDS011;7922;43.622;1.476;2022-11-12T03:20:14;9.97;;;5.43;;
15645;SDS011;7922;43.622;1.476;2022-11-12T03:22:40;9.93;;;4.97;;
15645;SDS011;7922;43.622;1.476;2022-11-12T03:25:06;7.37;;;4.40;;
15645;SDS011;7922;43.622;1.476;2022-11-12T03:27:32;9.17;;;4.90;;
15645;SDS011;7922;43.622;1.476;2022-11-12T03:29:57;9.33;;;5.30;;
15645;SDS011;7922;43.622;1.476;2022-11-12T03:32:23;7.03;;;5.07;;
15645;SDS011;7922;43.622;1.476;2022-11-12T03:34:48;8.50;;;4.77;;
15645;SDS011;7922;43.622;1.476;2022-11-12T03:37:14;7.17;;;4.87;;
15645;SDS011;7922;43.622;1.476;2022-11-12T03:39:39;8.60;;;5.77;;
15645;SDS011;7922;43.622;1.476;2022-11-12T03:42:05;9.70;;;5.03;;
15645;SDS011;7922;43.622;1.476;2022-11-12T03:44:30;6.47;;;5.00;;
15645;SDS011;7922;43.622;1.476;2022-11-12T03:46:56;7.73;;;4.93;;
15645;SDS011;7922;43.622;1.476;2022-11-12T03:49:21;9.20;;;5.43;;
15645;SDS011;7922;43.622;1.476;2022-11-12T03:51:47;8.03;;;5.20;;
15645;SDS011;7922;43.622;1.476;2022-11-12T03:54:12;7.53;;;4.73;;
15645;SDS011;7922;43.622;1.476;2022-11-12T03:56:38;8.80;;;5.20;;
15645;SDS011;7922;43.622;1.476;2022-11-12T03:59:03;11.07;;;4.70;;
15645;SDS011;7922;43.622;1.476;2022-11-12T04:01:29;7.23;;;4.90;;
15645;SDS011;7922;43.622;1.476;2022-11-12T04:03:54;7.97;;;5.40;;
15645;SDS011;7922;43.622;1.476;2022-11-12T04:06:19;9.83;;;5.17;;
15645;SDS011;7922;43.622;1.476;2022-11-12T04:09:03;9.20;;;4.70;;
15645;SDS011;7922;43.622;1.476;2022-11-12T04:11:29;8.27;;;4.83;;
15645;SDS011;7922;43.622;1.476;2022-11-12T04:13:54;12.17;;;5.30;;
15645;SDS011;7922;43.622;1.476;2022-11-12T04:16:20;7.90;;;4.97;;
15645;SDS011;7922;43.622;1.476;2022-11-12T04:19:05;10.57;;;5.00;;
15645;SDS011;7922;43.622;1.476;2022-11-12T04:21:51;7.07;;;4.97;;
15645;SDS011;7922;43.622;1.476;2022-11-12T04:24:25;12.57;;;5.40;;
15645;SDS011;7922;43.622;1.476;2022-11-12T04:27:13;7.67;;;5.17;;
15645;SDS011;7922;43.622;1.476;2022-11-12T04:29:42;9.40;;;5.40;;
15645;SDS011;7922;43.622;1.476;2022-11-12T04:32:27;6.50;;;5.20;;
15645;SDS011;7922;43.622;1.476;2022-11-12T04:34:52;8.83;;;5.20;;
15645;SDS011;7922;43.622;1.476;2022-11-12T04:37:18;5.63;;;5.07;;
15645;SDS011;7922;43.622;1.476;2022-11-12T04:39:43;7.77;;;4.83;;
15645;SDS011;7922;43.622;1.476;2022-11-12T04:42:09;7.67;;;4.80;;
15645;SDS011;7922;43.622;1.476;2022-11-12T04:44:53;8.73;;;4.53;;
15645;SDS011;7922;43.622;1.476;2022-11-12T04:47:38;10.43;;;4.93;;
15645;SDS011;7922;43.622;1.476;2022-11-12T04:50:14;7.40;;;4.60;;
15645;SDS011;7922;43.622;1.476;2022-11-12T04:52:41;7.40;;;4.97;;
15645;SDS011;7922;43.622;1.476;2022-11-12T04:55:06;8.60;;;4.50;;
15645;SDS011;7922;43.622;1.476;2022-11-12T04:57:32;6.33;;;5.20;;
15645;SDS011;7922;43.622;1.476;2022-11-12T04:59:58;8.43;;;4.57;;
15645;SDS011;7922;43.622;1.476;2022-11-12T05:02:23;8.23;;;4.53;;
15645;SDS011;7922;43.622;1.476;2022-11-12T05:04:48;6.93;;;4.73;;
15645;SDS011;7922;43.622;1.476;2022-11-12T05:07:14;8.33;;;4.33;;
15645;SDS011;7922;43.622;1.476;2022-11-12T05:09:40;7.23;;;4.80;;
15645;SDS011;7922;43.622;1.476;2022-11-12T05:12:06;8.90;;;4.63;;
15645;SDS011;7922;43.622;1.476;2022-11-12T05:14:31;7.13;;;4.23;;
15645;SDS011;7922;43.622;1.476;2022-11-12T05:16:57;10.53;;;4.33;;
15645;SDS011;7922;43.622;1.476;2022-11-12T05:19:22;7.57;;;4.17;;
15645;SDS011;7922;43.622;1.476;2022-11-12T05:21:47;6.40;;;4.27;;
15645;SDS011;7922;43.622;1.476;2022-11-12T05:24:38;10.70;;;4.30;;
15645;SDS011;7922;43.622;1.476;2022-11-12T05:27:15;5.70;;;4.03;;
15645;SDS011;7922;43.622;1.476;2022-11-12T05:29:42;8.90;;;4.13;;
15645;SDS011;7922;43.622;1.476;2022-11-12T05:32:08;6.63;;;4.40;;
15645;SDS011;7922;43.622;1.476;2022-11-12T05:34:35;8.57;;;4.13;;
15645;SDS011;7922;43.622;1.476;2022-11-12T05:37:01;8.43;;;4.33;;
15645;SDS011;7922;43.622;1.476;2022-11-12T05:39:27;7.17;;;4.67;;
15645;SDS011;7922;43.622;1.476;2022-11-12T05:41:53;6.93;;;3.93;;
15645;SDS011;7922;43.622;1.476;2022-11-12T05:44:18;4.43;;;3.63;;
15645;SDS011;7922;43.622;1.476;2022-11-12T05:46:44;5.93;;;4.03;;
15645;SDS011;7922;43.622;1.476;2022-11-12T05:49:09;5.73;;;3.90;;
15645;SDS011;7922;43.622;1.476;2022-11-12T05:51:35;7.27;;;4.27;;
15645;SDS011;7922;43.622;1.476;2022-11-12T05:54:01;8.90;;;4.10;;
15645;SDS011;7922;43.622;1.476;2022-11-12T05:56:26;7.87;;;4.10;;
15645;SDS011;7922;43.622;1.476;2022-11-12T05:58:52;6.23;;;3.60;;
15645;SDS011;7922;43.622;1.476;2022-11-12T06:01:17;5.07;;;4.20;;
15645;SDS011;7922;43.622;1.476;2022-11-12T06:03:43;4.67;;;3.83;;
15645;SDS011;7922;43.622;1.476;2022-11-12T06:06:08;5.13;;;4.03;;
15645;SDS011;7922;43.622;1.476;2022-11-12T06:08:34;6.03;;;3.80;;
15645;SDS011;7922;43.622;1.476;2022-11-12T06:10:59;5.33;;;3.90;;
15645;SDS011;7922;43.622;1.476;2022-11-12T06:13:24;6.40;;;3.73;;
15645;SDS011;7922;43.622;1.476;2022-11-12T06:15:53;9.43;;;3.73;;
15645;SDS011;7922;43.622;1.476;2022-11-12T06:18:20;4.50;;;4.07;;
15645;SDS011;7922;43.622;1.476;2022-11-12T06:20:46;9.87;;;4.90;;
15645;SDS011;7922;43.622;1.476;2022-11-12T06:23:31;7.17;;;3.87;;
15645;SDS011;7922;43.622;1.476;2022-11-12T06:25:56;6.83;;;4.40;;
15645;SDS011;7922;43.622;1.476;2022-11-12T06:28:22;4.37;;;3.97;;
15645;SDS011;7922;43.622;1.476;2022-11-12T06:30:47;5.50;;;3.63;;
15645;SDS011;7922;43.622;1.476;2022-11-12T06:33:13;8.70;;;4.20;;
15645;SDS011;7922;43.622;1.476;2022-11-12T06:35:38;7.13;;;4.33;;
15645;SDS011;7922;43.622;1.476;2022-11-12T06:38:03;5.83;;;3.87;;
15645;SDS011;7922;43.622;1.476;2022-11-12T06:40:29;5.77;;;4.63;;
15645;SDS011;7922;43.622;1.476;2022-11-12T06:42:57;5.93;;;3.70;;
15645;SDS011;7922;43.622;1.476;2022-11-12T06:45:23;6.47;;;4.07;;
15645;SDS011;7922;43.622;1.476;2022-11-12T06:47:49;7.73;;;4.10;;
15645;SDS011;7922;43.622;1.476;2022-11-12T06:50:14;6.20;;;4.20;;
15645;SDS011;7922;43.622;1.476;2022-11-12T06:52:40;5.47;;;4.37;;
15645;SDS011;7922;43.622;1.476;2022-11-12T06:55:05;6.27;;;4.03;;
15645;SDS011;7922;43.622;1.476;2022-11-12T06:57:32;7.10;;;4.03;;
15645;SDS011;7922;43.622;1.476;2022-11-12T06:59:58;6.27;;;4.23;;
15645;SDS011;7922;43.622;1.476;2022-11-12T07:02:23;4.97;;;3.47;;
15645;SDS011;7922;43.622;1.476;2022-11-12T07:04:48;5.53;;;4.10;;
15645;SDS011;7922;43.622;1.476;2022-11-12T07:07:14;5.20;;;3.67;;
15645;SDS011;7922;43.622;1.476;2022-11-12T07:09:39;5.57;;;3.97;;
15645;SDS011;7922;43.622;1.476;2022-11-12T07:12:05;5.93;;;3.83;;
15645;SDS011;7922;43.622;1.476;2022-11-12T07:14:30;6.83;;;4.27;;
15645;SDS011;7922;43.622;1.476;2022-11-12T07:16:56;4.30;;;3.90;;
15645;SDS011;7922;43.622;1.476;2022-11-12T07:19:21;5.40;;;3.93;;
15645;SDS011;7922;43.622;1.476;2022-11-12T07:21:46;6.80;;;4.27;;
15645;SDS011;7922;43.622;1.476;2022-11-12T07:24:12;6.57;;;4.07;;
15645;SDS011;7922;43.622;1.476;2022-11-12T07:26:37;7.37;;;4.67;;
15645;SDS011;7922;43.622;1.476;2022-11-12T07:29:02;5.60;;;4.50;;
15645;SDS011;7922;43.622;1.476;2022-11-12T07:31:28;5.60;;;4.37;;
15645;SDS011;7922;43.622;1.476;2022-11-12T07:33:53;5.43;;;4.50;;
15645;SDS011;7922;43.622;1.476;2022-11-12T07:36:19;9.53;;;5.87;;
15645;SDS011;7922;43.622;1.476;2022-11-12T07:38:45;8.10;;;5.47;;
15645;SDS011;7922;43.622;1.476;2022-11-12T07:41:15;7.40;;;6.07;;
15645;SDS011;7922;43.622;1.476;2022-11-12T07:43:46;8.63;;;5.40;;
15645;SDS011;7922;43.622;1.476;2022-11-12T07:46:30;7.73;;;5.83;;
15645;SDS011;7922;43.622;1.476;2022-11-12T07:48:55;8.93;;;4.67;;
15645;SDS011;7922;43.622;1.476;2022-11-12T07:51:22;6.97;;;5.60;;
15645;SDS011;7922;43.622;1.476;2022-11-12T07:53:49;6.40;;;5.43;;
15645;SDS011;7922;43.622;1.476;2022-11-12T07:56:17;5.50;;;5.10;;
15645;SDS011;7922;43.622;1.476;2022-11-12T07:58:44;7.40;;;5.10;;
15645;SDS011;7922;43.622;1.476;2022-11-12T08:03:57;8.50;;;5.07;;
15645;SDS011;7922;43.622;1.476;2022-11-12T08:06:23;6.10;;;5.27;;
15645;SDS011;7922;43.622;1.476;2022-11-12T08:08:52;6.93;;;5.80;;
15645;SDS011;7922;43.622;1.476;2022-11-12T08:11:17;5.33;;;4.70;;
15645;SDS011;7922;43.622;1.476;2022-11-12T08:13:43;6.63;;;5.37;;
15645;SDS011;7922;43.622;1.476;2022-11-12T08:16:08;5.40;;;4.90;;
15645;SDS011;7922;43.622;1.476;2022-11-12T08:18:34;7.10;;;5.00;;
15645;SDS011;7922;43.622;1.476;2022-11-12T08:21:03;7.60;;;5.20;;
15645;SDS011;7922;43.622;1.476;2022-11-12T08:23:30;6.80;;;5.13;;
15645;SDS011;7922;43.622;1.476;2022-11-12T08:25:59;8.17;;;5.67;;
15645;SDS011;7922;43.622;1.476;2022-11-12T08:28:25;5.77;;;5.17;;
15645;SDS011;7922;43.622;1.476;2022-11-12T08:30:52;6.90;;;5.30;;
15645;SDS011;7922;43.622;1.476;2022-11-12T08:33:17;8.00;;;5.43;;
15645;SDS011;7922;43.622;1.476;2022-11-12T08:35:42;5.93;;;5.40;;
15645;SDS011;7922;43.622;1.476;2022-11-12T08:38:08;9.03;;;6.00;;
15645;SDS011;7922;43.622;1.476;2022-11-12T08:40:34;10.40;;;6.00;;
15645;SDS011;7922;43.622;1.476;2022-11-12T08:43:01;7.60;;;5.23;;
15645;SDS011;7922;43.622;1.476;2022-11-12T08:45:30;5.47;;;4.80;;
15645;SDS011;7922;43.622;1.476;2022-11-12T08:48:05;6.37;;;4.77;;
15645;SDS011;7922;43.622;1.476;2022-11-12T08:50:35;6.03;;;5.00;;
15645;SDS011;7922;43.622;1.476;2022-11-12T08:53:05;6.17;;;4.63;;
15645;SDS011;7922;43.622;1.476;2022-11-12T08:55:32;5.00;;;4.60;;
15645;SDS011;7922;43.622;1.476;2022-11-12T08:57:58;7.13;;;4.80;;
15645;SDS011;7922;43.622;1.476;2022-11-12T09:00:29;8.67;;;4.90;;
15645;SDS011;7922;43.622;1.476;2022-11-12T09:02:58;6.53;;;4.70;;
15645;SDS011;7922;43.622;1.476;2022-11-12T09:05:24;7.73;;;4.30;;
15645;SDS011;7922;43.622;1.476;2022-11-12T09:07:55;8.63;;;4.20;;
15645;SDS011;7922;43.622;1.476;2022-11-12T09:10:31;4.80;;;3.83;;
15645;SDS011;7922;43.622;1.476;2022-11-12T09:12:57;4.63;;;4.23;;
15645;SDS011;7922;43.622;1.476;2022-11-12T09:15:23;5.37;;;4.40;;
15645;SDS011;7922;43.622;1.476;2022-11-12T09:17:55;6.53;;;4.37;;
15645;SDS011;7922;43.622;1.476;2022-11-12T09:20:22;5.77;;;4.40;;
15645;SDS011;7922;43.622;1.476;2022-11-12T09:22:47;6.97;;;4.13;;
15645;SDS011;7922;43.622;1.476;2022-11-12T09:25:13;5.70;;;3.73;;
15645;SDS011;7922;43.622;1.476;2022-11-12T09:27:38;5.47;;;3.97;;
15645;SDS011;7922;43.622;1.476;2022-11-12T09:30:04;5.47;;;4.20;;
15645;SDS011;7922;43.622;1.476;2022-11-12T09:32:30;6.90;;;3.70;;
15645;SDS011;7922;43.622;1.476;2022-11-12T09:34:56;8.07;;;4.27;;
15645;SDS011;7922;43.622;1.476;2022-11-12T09:37:21;8.20;;;4.00;;
15645;SDS011;7922;43.622;1.476;2022-11-12T09:39:47;5.40;;;3.43;;
15645;SDS011;7922;43.622;1.476;2022-11-12T09:42:13;6.70;;;3.60;;
15645;SDS011;7922;43.622;1.476;2022-11-12T09:44:41;5.83;;;3.37;;
15645;SDS011;7922;43.622;1.476;2022-11-12T09:54:49;5.87;;;3.27;;
15645;SDS011;7922;43.622;1.476;2022-11-12T09:57:16;4.10;;;3.27;;
15645;SDS011;7922;43.622;1.476;2022-11-12T09:59:41;4.77;;;3.30;;
15645;SDS011;7922;43.622;1.476;2022-11-12T10:10:38;5.33;;;3.40;;
15645;SDS011;7922;43.622;1.476;2022-11-12T10:24:09;4.20;;;3.27;;
15645;SDS011;7922;43.622;1.476;2022-11-12T10:26:38;5.57;;;3.43;;
15645;SDS011;7922;43.622;1.476;2022-11-12T10:31:36;3.50;;;3.00;;
15645;SDS011;7922;43.622;1.476;2022-11-12T10:34:19;4.73;;;3.37;;
15645;SDS011;7922;43.622;1.476;2022-11-12T10:36:50;4.60;;;2.93;;
15645;SDS011;7922;43.622;1.476;2022-11-12T10:44:29;4.40;;;3.00;;
15645;SDS011;7922;43.622;1.476;2022-11-12T10:47:11;5.00;;;3.93;;
15645;SDS011;7922;43.622;1.476;2022-11-12T10:52:32;4.93;;;3.27;;
15645;SDS011;7922;43.622;1.476;2022-11-12T10:55:32;9.40;;;3.20;;
15645;SDS011;7922;43.622;1.476;2022-11-12T11:03:30;5.27;;;3.07;;
15645;SDS011;7922;43.622;1.476;2022-11-12T11:05:59;5.50;;;3.23;;
15645;SDS011;7922;43.622;1.476;2022-11-12T11:08:38;4.73;;;3.03;;
15645;SDS011;7922;43.622;1.476;2022-11-12T11:13:41;4.40;;;2.80;;
15645;SDS011;7922;43.622;1.476;2022-11-12T11:16:09;3.50;;;3.00;;
15645;SDS011;7922;43.622;1.476;2022-11-12T11:18:37;3.60;;;3.10;;
15645;SDS011;7922;43.622;1.476;2022-11-12T11:21:16;5.30;;;3.33;;
15645;SDS011;7922;43.622;1.476;2022-11-12T11:32:15;4.43;;;3.33;;
15645;SDS011;7922;43.622;1.476;2022-11-12T11:38:22;3.73;;;3.03;;
15645;SDS011;7922;43.622;1.476;2022-11-12T11:40:36;3.37;;;2.80;;
15645;SDS011;7922;43.622;1.476;2022-11-12T11:45:55;4.93;;;3.37;;
15645;SDS011;7922;43.622;1.476;2022-11-12T11:52:11;3.90;;;3.10;;
15645;SDS011;7922;43.622;1.476;2022-11-12T11:54:27;8.50;;;2.70;;
15645;SDS011;7922;43.622;1.476;2022-11-12T11:56:57;3.50;;;2.87;;
15645;SDS011;7922;43.622;1.476;2022-11-12T12:04:47;5.00;;;2.97;;
15645;SDS011;7922;43.622;1.476;2022-11-12T12:10:02;3.90;;;3.03;;
15645;SDS011;7922;43.622;1.476;2022-11-12T12:21:01;4.30;;;2.60;;
15645;SDS011;7922;43.622;1.476;2022-11-12T12:23:38;5.53;;;3.00;;
15645;SDS011;7922;43.622;1.476;2022-11-12T12:26:10;4.33;;;2.97;;
15645;SDS011;7922;43.622;1.476;2022-11-12T12:28:40;5.10;;;3.10;;
15645;SDS011;7922;43.622;1.476;2022-11-12T12:31:13;3.80;;;2.83;;
15645;SDS011;7922;43.622;1.476;2022-11-12T12:33:44;3.93;;;2.87;;
15645;SDS011;7922;43.622;1.476;2022-11-12T12:41:47;3.57;;;2.60;;
15645;SDS011;7922;43.622;1.476;2022-11-12T12:44:37;4.80;;;3.00;;
15645;SDS011;7922;43.622;1.476;2022-11-12T12:47:24;4.10;;;3.10;;
15645;SDS011;7922;43.622;1.476;2022-11-12T12:49:50;3.67;;;2.93;;
15645;SDS011;7922;43.622;1.476;2022-11-12T12:52:16;4.30;;;2.97;;
15645;SDS011;7922;43.622;1.476;2022-11-12T12:57:32;3.73;;;2.57;;
15645;SDS011;7922;43.622;1.476;2022-11-12T13:02:54;4.33;;;2.73;;
15645;SDS011;7922;43.622;1.476;2022-11-12T13:05:24;5.70;;;2.90;;
15645;SDS011;7922;43.622;1.476;2022-11-12T13:07:49;6.60;;;2.57;;
15645;SDS011;7922;43.622;1.476;2022-11-12T13:15:49;4.93;;;2.47;;
15645;SDS011;7922;43.622;1.476;2022-11-12T13:21:18;5.00;;;3.00;;
15645;SDS011;7922;43.622;1.476;2022-11-12T13:23:45;3.83;;;2.63;;
15645;SDS011;7922;43.622;1.476;2022-11-12T13:26:41;4.27;;;2.90;;
15645;SDS011;7922;43.622;1.476;2022-11-12T13:40:44;5.20;;;2.93;;
15645;SDS011;7922;43.622;1.476;2022-11-12T13:43:19;3.13;;;2.83;;
15645;SDS011;7922;43.622;1.476;2022-11-12T13:46:02;4.13;;;3.20;;
15645;SDS011;7922;43.622;1.476;2022-11-12T13:48:40;3.73;;;2.80;;
15645;SDS011;7922;43.622;1.476;2022-11-12T13:51:22;3.77;;;2.90;;
15645;SDS011;7922;43.622;1.476;2022-11-12T13:56:48;3.17;;;2.60;;
15645;SDS011;7922;43.622;1.476;2022-11-12T14:01:40;3.87;;;2.63;;
15645;SDS011;7922;43.622;1.476;2022-11-12T14:04:07;4.60;;;2.87;;
15645;SDS011;7922;43.622;1.476;2022-11-12T14:06:36;3.63;;;2.90;;
15645;SDS011;7922;43.622;1.476;2022-11-12T14:15:16;2.70;;;2.30;;
15645;SDS011;7922;43.622;1.476;2022-11-12T14:20:40;4.50;;;2.70;;
15645;SDS011;7922;43.622;1.476;2022-11-12T14:23:13;4.63;;;2.20;;
15645;SDS011;7922;43.622;1.476;2022-11-12T14:28:24;3.47;;;2.20;;
15645;SDS011;7922;43.622;1.476;2022-11-12T14:30:53;4.30;;;2.47;;
15645;SDS011;7922;43.622;1.476;2022-11-12T14:33:19;2.53;;;2.00;;
15645;SDS011;7922;43.622;1.476;2022-11-12T14:35:46;4.37;;;2.13;;
15645;SDS011;7922;43.622;1.476;2022-11-12T14:38:14;2.57;;;2.20;;
15645;SDS011;7922;43.622;1.476;2022-11-12T14:40:51;3.53;;;1.60;;
15645;SDS011;7922;43.622;1.476;2022-11-12T14:43:19;10.80;;;2.00;;
15645;SDS011;7922;43.622;1.476;2022-11-12T14:46:00;2.80;;;2.00;;
15645;SDS011;7922;43.622;1.476;2022-11-12T14:48:26;3.33;;;1.83;;
15645;SDS011;7922;43.622;1.476;2022-11-12T14:51:05;2.53;;;1.90;;
15645;SDS011;7922;43.622;1.476;2022-11-12T14:53:36;3.17;;;2.10;;
15645;SDS011;7922;43.622;1.476;2022-11-12T14:56:03;5.87;;;2.00;;
15645;SDS011;7922;43.622;1.476;2022-11-12T14:58:31;5.43;;;2.20;;
15645;SDS011;7922;43.622;1.476;2022-11-12T15:00:57;3.47;;;1.87;;
15645;SDS011;7922;43.622;1.476;2022-11-12T15:03:24;3.70;;;2.00;;
15645;SDS011;7922;43.622;1.476;2022-11-12T15:06:05;5.93;;;2.53;;
15645;SDS011;7922;43.622;1.476;2022-11-12T15:08:34;3.20;;;1.93;;
15645;SDS011;7922;43.622;1.476;2022-11-12T15:11:18;3.83;;;1.90;;
15645;SDS011;7922;43.622;1.476;2022-11-12T15:13:43;3.50;;;2.10;;
15645;SDS011;7922;43.622;1.476;2022-11-12T15:16:10;3.50;;;2.07;;
15645;SDS011;7922;43.622;1.476;2022-11-12T15:19:32;3.60;;;1.80;;
15645;SDS011;7922;43.622;1.476;2022-11-12T15:21:43;2.53;;;1.73;;
15645;SDS011;7922;43.622;1.476;2022-11-12T15:26:37;4.27;;;2.20;;
15645;SDS011;7922;43.622;1.476;2022-11-12T15:31:45;2.10;;;1.67;;
15645;SDS011;7922;43.622;1.476;2022-11-12T15:36:50;3.33;;;1.80;;
15645;SDS011;7922;43.622;1.476;2022-11-12T15:39:15;2.80;;;1.90;;
15645;SDS011;7922;43.622;1.476;2022-11-12T15:41:41;2.40;;;1.70;;
15645;SDS011;7922;43.622;1.476;2022-11-12T15:44:09;4.40;;;1.87;;
15645;SDS011;7922;43.622;1.476;2022-11-12T15:46:38;4.10;;;1.90;;
15645;SDS011;7922;43.622;1.476;2022-11-12T15:49:10;3.00;;;1.60;;
15645;SDS011;7922;43.622;1.476;2022-11-12T15:51:36;2.33;;;1.70;;
15645;SDS011;7922;43.622;1.476;2022-11-12T15:54:02;3.53;;;1.87;;
15645;SDS011;7922;43.622;1.476;2022-11-12T15:56:27;3.30;;;1.97;;
15645;SDS011;7922;43.622;1.476;2022-11-12T15:58:53;2.97;;;2.00;;
15645;SDS011;7922;43.622;1.476;2022-11-12T16:01:19;4.03;;;1.67;;
15645;SDS011;7922;43.622;1.476;2022-11-12T16:03:45;2.27;;;1.80;;
15645;SDS011;7922;43.622;1.476;2022-11-12T16:06:10;3.63;;;2.13;;
15645;SDS011;7922;43.622;1.476;2022-11-12T16:08:36;2.00;;;1.70;;
15645;SDS011;7922;43.622;1.476;2022-11-12T16:11:01;3.80;;;1.80;;
15645;SDS011;7922;43.622;1.476;2022-11-12T16:13:27;2.97;;;1.67;;
15645;SDS011;7922;43.622;1.476;2022-11-12T16:15:55;3.40;;;1.83;;
15645;SDS011;7922;43.622;1.476;2022-11-12T16:18:20;2.70;;;1.83;;
15645;SDS011;7922;43.622;1.476;2022-11-12T16:20:46;2.13;;;1.33;;
15645;SDS011;7922;43.622;1.476;2022-11-12T16:23:13;3.83;;;1.90;;
15645;SDS011;7922;43.622;1.476;2022-11-12T16:25:39;2.03;;;1.60;;
15645;SDS011;7922;43.622;1.476;2022-11-12T16:28:13;3.73;;;1.93;;
15645;SDS011;7922;43.622;1.476;2022-11-12T16:30:39;2.13;;;1.67;;
15645;SDS011;7922;43.622;1.476;2022-11-12T16:33:05;2.57;;;1.90;;
15645;SDS011;7922;43.622;1.476;2022-11-12T16:35:31;1.93;;;1.60;;
15645;SDS011;7922;43.622;1.476;2022-11-12T16:37:58;3.00;;;1.90;;
15645;SDS011;7922;43.622;1.476;2022-11-12T16:40:24;2.07;;;1.53;;
15645;SDS011;7922;43.622;1.476;2022-11-12T16:42:51;3.33;;;1.90;;
15645;SDS011;7922;43.622;1.476;2022-11-12T16:45:17;2.10;;;1.90;;
15645;SDS011;7922;43.622;1.476;2022-11-12T16:47:47;2.87;;;1.90;;
15645;SDS011;7922;43.622;1.476;2022-11-12T16:50:15;2.87;;;2.23;;
15645;SDS011;7922;43.622;1.476;2022-11-12T16:52:43;2.50;;;1.90;;
15645;SDS011;7922;43.622;1.476;2022-11-12T16:55:08;4.17;;;2.00;;
15645;SDS011;7922;43.622;1.476;2022-11-12T16:57:34;3.10;;;2.43;;
15645;SDS011;7922;43.622;1.476;2022-11-12T17:00:00;4.13;;;2.03;;
15645;SDS011;7922;43.622;1.476;2022-11-12T17:02:26;2.30;;;2.10;;
15645;SDS011;7922;43.622;1.476;2022-11-12T17:04:51;3.33;;;1.97;;
15645;SDS011;7922;43.622;1.476;2022-11-12T17:07:17;4.00;;;2.07;;
15645;SDS011;7922;43.622;1.476;2022-11-12T17:09:42;3.20;;;2.10;;
15645;SDS011;7922;43.622;1.476;2022-11-12T17:12:08;3.17;;;2.57;;
15645;SDS011;7922;43.622;1.476;2022-11-12T17:14:33;3.33;;;2.33;;
15645;SDS011;7922;43.622;1.476;2022-11-12T17:16:59;3.17;;;1.87;;
15645;SDS011;7922;43.622;1.476;2022-11-12T17:19:24;5.73;;;2.33;;
15645;SDS011;7922;43.622;1.476;2022-11-12T17:21:50;2.47;;;1.83;;
15645;SDS011;7922;43.622;1.476;2022-11-12T17:24:15;2.97;;;2.07;;
15645;SDS011;7922;43.622;1.476;2022-11-12T17:26:41;3.10;;;1.80;;